createdAt,value
2017-09-25T00:00:43.230Z,78.41
2017-09-25T00:05:45.781Z,79.47
2017-09-25T00:10:48.039Z,79.74
2017-09-25T00:15:50.215Z,79.90
2017-09-25T00:20:53.596Z,79.27
2017-09-25T00:25:56.721Z,79.15
2017-09-25T00:31:00.282Z,79.03
2017-09-25T00:36:03.044Z,79.42
2017-09-25T00:41:05.780Z,78.97
2017-09-25T00:46:09.293Z,79.09
2017-09-25T00:51:12.644Z,78.99
2017-09-25T00:56:16.052Z,79.56
2017-09-25T01:01:19.803Z,79.30
2017-09-25T01:06:27.168Z,79.16
2017-09-25T01:11:29.857Z,78.52
2017-09-25T01:16:33.213Z,78.25
2017-09-25T01:21:35.820Z,78.08
2017-09-25T01:26:38.511Z,77.75
2017-09-25T01:31:41.198Z,78.00
2017-09-25T01:36:43.825Z,78.06
2017-09-25T01:41:47.947Z,78.44
2017-09-25T01:46:49.876Z,78.31
2017-09-25T01:51:52.568Z,78.58
2017-09-25T01:56:54.919Z,78.77
2017-09-25T02:01:57.189Z,79.59
2017-09-25T02:06:59.794Z,79.64
2017-09-25T02:12:02.311Z,79.95
2017-09-25T02:17:05.031Z,80.67
2017-09-25T02:22:07.814Z,80.35
2017-09-25T02:27:10.342Z,79.79
2017-09-25T02:32:12.454Z,79.74
2017-09-25T02:37:14.534Z,80.21
2017-09-25T02:42:17.291Z,80.34
2017-09-25T02:47:21.409Z,79.46
2017-09-25T02:52:24.190Z,79.17
2017-09-25T02:57:26.763Z,78.57
2017-09-25T03:02:29.228Z,78.43
2017-09-25T03:07:31.833Z,79.25
2017-09-25T03:12:35.246Z,78.76
2017-09-25T03:17:37.686Z,78.88
2017-09-25T03:22:40.430Z,78.84
2017-09-25T03:27:43.151Z,78.70
2017-09-25T03:32:45.806Z,78.70
2017-09-25T03:37:48.403Z,78.32
2017-09-25T03:42:50.722Z,77.99
2017-09-25T03:47:52.793Z,78.51
2017-09-25T03:52:55.472Z,78.55
2017-09-25T03:57:58.027Z,79.17
2017-09-25T04:03:00.127Z,79.10
2017-09-25T04:08:02.707Z,78.61
2017-09-25T04:13:05.087Z,78.76
2017-09-25T04:18:08.644Z,79.37
2017-09-25T04:23:10.740Z,78.59
2017-09-25T04:28:13.192Z,78.93
2017-09-25T04:33:15.122Z,79.11
2017-09-25T04:38:17.696Z,79.37
2017-09-25T04:43:20.350Z,79.16
2017-09-25T04:48:23.841Z,79.19
2017-09-25T04:53:26.418Z,78.42
2017-09-25T04:58:28.801Z,78.14
2017-09-25T05:03:31.991Z,78.24
2017-09-25T05:08:34.450Z,77.99
2017-09-25T05:13:37.783Z,77.67
2017-09-25T05:18:40.329Z,77.77
2017-09-25T05:23:42.459Z,77.79
2017-09-25T05:28:45.012Z,77.61
2017-09-25T05:33:47.763Z,77.63
2017-09-25T05:38:50.984Z,77.72
2017-09-25T05:43:53.570Z,77.59
2017-09-25T05:48:56.071Z,77.55
2017-09-25T05:53:58.715Z,78.26
2017-09-25T05:59:01.872Z,78.47
2017-09-25T06:04:04.395Z,78.40
2017-09-25T06:09:07.096Z,78.26
2017-09-25T06:14:09.780Z,78.51
2017-09-25T06:19:13.293Z,79.20
2017-09-25T06:24:17.357Z,79.24
2017-09-25T06:29:19.968Z,78.95
2017-09-25T06:34:22.664Z,79.30
2017-09-25T06:39:26.047Z,79.38
2017-09-25T06:44:28.200Z,78.93
2017-09-25T06:49:30.843Z,79.88
2017-09-25T06:54:33.077Z,79.88
2017-09-25T06:59:35.704Z,79.04
2017-09-25T07:04:38.951Z,78.96
2017-09-25T07:09:41.619Z,79.07
2017-09-25T07:14:44.351Z,78.90
2017-09-25T07:19:46.492Z,79.04
2017-09-25T07:24:49.084Z,78.76
2017-09-25T07:29:52.685Z,78.27
2017-09-25T07:34:56.288Z,78.22
2017-09-25T07:39:59.610Z,78.94
2017-09-25T07:45:01.701Z,78.89
2017-09-25T07:50:04.090Z,79.45
2017-09-25T07:55:07.382Z,78.75
2017-09-25T08:00:10.420Z,78.75
2017-09-25T08:05:12.655Z,78.82
2017-09-25T08:10:14.961Z,78.78
2017-09-25T08:15:17.565Z,79.02
2017-09-25T08:20:19.987Z,79.33
2017-09-25T08:25:22.774Z,78.89
2017-09-25T08:30:25.202Z,79.21
2017-09-25T08:35:27.835Z,78.74
2017-09-25T08:40:30.423Z,78.65
2017-09-25T08:45:32.988Z,77.55
2017-09-25T08:50:35.569Z,77.01
2017-09-25T08:55:38.066Z,77.70
2017-09-25T09:00:40.716Z,76.70
2017-09-25T09:05:43.315Z,76.27
2017-09-25T09:10:46.932Z,75.20
2017-09-25T09:15:49.571Z,75.96
2017-09-25T09:20:55.054Z,74.59
2017-09-25T09:25:57.956Z,74.40
2017-09-25T09:31:01.514Z,74.61
2017-09-25T09:36:03.959Z,74.11
2017-09-25T09:41:06.578Z,71.79
2017-09-25T09:46:09.876Z,70.07
2017-09-25T09:51:12.222Z,70.10
2017-09-25T09:56:15.412Z,70.21
2017-09-25T10:01:18.582Z,69.33
2017-09-25T10:06:21.262Z,69.48
2017-09-25T10:11:23.903Z,69.48
2017-09-25T10:16:25.887Z,69.93
2017-09-25T10:21:35.067Z,69.07
2017-09-25T10:26:39.672Z,68.32
2017-09-25T10:31:42.863Z,69.51
2017-09-25T10:36:45.501Z,70.29
2017-09-25T10:41:48.588Z,69.78
2017-09-25T10:46:51.760Z,68.86
2017-09-25T10:51:56.439Z,67.40
2017-09-25T10:56:59.600Z,67.10
2017-09-25T11:02:02.609Z,67.75
2017-09-25T11:07:05.587Z,68.04
2017-09-25T11:12:08.518Z,66.32
2017-09-25T11:17:11.542Z,66.39
2017-09-25T11:22:14.890Z,66.03
2017-09-25T11:27:18.021Z,65.30
2017-09-25T11:32:20.970Z,65.15
2017-09-25T11:37:23.635Z,65.49
2017-09-25T11:42:26.333Z,66.80
2017-09-25T11:47:29.129Z,67.86
2017-09-25T11:52:31.520Z,68.54
2017-09-25T11:57:34.347Z,68.38
2017-09-25T12:02:36.349Z,68.76
2017-09-25T12:07:38.937Z,69.09
2017-09-25T12:12:42.523Z,70.17
2017-09-25T12:17:45.190Z,71.74
2017-09-25T12:22:48.273Z,70.81
2017-09-25T12:27:51.052Z,69.30
2017-09-25T12:32:53.602Z,68.07
2017-09-25T12:37:56.184Z,67.66
2017-09-25T12:42:58.775Z,67.67
2017-09-25T12:48:01.488Z,67.24
2017-09-25T12:53:04.124Z,66.66
2017-09-25T12:58:06.370Z,65.52
2017-09-25T13:03:09.099Z,66.42
2017-09-25T13:08:11.038Z,65.22
2017-09-25T13:13:13.248Z,65.24
2017-09-25T13:18:15.894Z,64.44
2017-09-25T13:23:18.487Z,62.24
2017-09-25T13:28:21.098Z,61.93
2017-09-25T13:33:24.141Z,61.80
2017-09-25T13:38:26.355Z,63.22
2017-09-25T13:43:28.563Z,71.61
2017-09-25T13:48:31.197Z,76.83
2017-09-25T13:53:33.399Z,77.26
2017-09-25T14:03:43.196Z,75.91
2017-09-25T14:08:45.919Z,76.22
2017-09-25T14:13:48.316Z,76.65
2017-09-25T14:18:50.429Z,76.28
2017-09-25T14:23:53.085Z,75.73
2017-09-25T14:28:55.763Z,76.28
2017-09-25T14:33:58.500Z,75.81
2017-09-25T14:39:01.165Z,74.48
2017-09-25T14:44:05.857Z,73.00
2017-09-25T14:49:08.512Z,72.81
2017-09-25T14:54:11.792Z,72.05
2017-09-25T14:59:15.882Z,71.85
2017-09-25T15:04:18.409Z,70.81
2017-09-25T15:15:02.422Z,70.39
2017-09-25T15:30:50.540Z,71.55
2017-09-25T15:36:05.751Z,71.65
2017-09-25T15:46:32.294Z,72.01
2017-09-25T15:51:38.009Z,71.40
2017-09-25T15:56:49.200Z,70.26
2017-09-25T16:02:00.346Z,70.25
2017-09-25T16:07:19.261Z,71.67
2017-09-25T16:12:29.994Z,73.42
2017-09-25T16:17:49.601Z,74.91
2017-09-25T16:22:59.385Z,75.55
2017-09-25T16:28:09.968Z,76.22
2017-09-25T16:33:16.153Z,75.86
2017-09-25T16:38:29.148Z,75.87
2017-09-25T16:43:42.771Z,75.88
2017-09-25T16:48:59.367Z,75.28
2017-09-25T16:54:18.139Z,75.55
2017-09-25T16:59:24.158Z,76.45
2017-09-25T17:04:28.504Z,75.09
2017-09-25T17:09:33.386Z,73.65
2017-09-25T17:14:38.937Z,74.29
2017-09-25T17:19:43.614Z,75.96
2017-09-25T17:24:51.255Z,77.39
2017-09-25T17:29:56.921Z,78.50
2017-09-25T17:35:02.611Z,78.63
2017-09-25T17:40:09.648Z,77.56
2017-09-25T17:45:15.697Z,77.79
2017-09-25T17:50:20.781Z,77.53
2017-09-25T17:55:25.917Z,77.40
2017-09-25T18:00:33.553Z,77.90
2017-09-25T18:05:39.441Z,78.24
2017-09-25T18:10:47.170Z,78.93
2017-09-25T18:15:54.951Z,79.64
2017-09-25T18:21:01.961Z,79.35
2017-09-25T18:26:07.195Z,79.89
2017-09-25T18:31:15.684Z,80.13
2017-09-25T18:36:23.935Z,80.14
2017-09-25T18:41:27.683Z,79.73
2017-09-25T18:46:31.085Z,79.69
2017-09-25T18:51:33.096Z,79.60
2017-09-25T18:56:35.420Z,79.78
2017-09-25T19:01:38.345Z,79.65
2017-09-25T19:06:42.111Z,79.43
2017-09-25T19:11:45.901Z,79.73
2017-09-25T19:16:48.413Z,78.99
2017-09-25T19:21:57.652Z,78.47
2017-09-25T19:27:05.413Z,78.53
2017-09-25T19:32:12.775Z,78.43
2017-09-25T19:37:16.268Z,78.49
2017-09-25T19:42:22.952Z,79.06
2017-09-25T19:47:28.993Z,78.29
2017-09-25T19:52:39.795Z,77.86
2017-09-25T20:03:29.351Z,78.25
2017-09-25T20:08:31.316Z,78.54
2017-09-25T20:13:45.426Z,77.72
2017-09-25T20:18:49.138Z,77.29
2017-09-25T20:23:51.416Z,77.92
2017-09-25T20:28:55.931Z,77.63
2017-09-25T20:34:02.175Z,77.84
2017-09-25T20:39:06.834Z,78.07
2017-09-25T20:44:11.807Z,77.34
2017-09-25T20:49:16.280Z,78.13
2017-09-25T20:54:21.778Z,78.31
2017-09-25T20:59:26.205Z,78.52
2017-09-25T21:04:31.290Z,78.21
2017-09-25T21:09:36.173Z,78.51
2017-09-25T21:14:40.771Z,78.15
2017-09-25T21:19:47.035Z,78.82
2017-09-25T21:24:51.669Z,79.20
2017-09-25T21:29:56.051Z,78.93
2017-09-25T21:35:01.298Z,78.96
2017-09-25T21:40:05.806Z,78.82
2017-09-25T21:45:10.219Z,78.58
2017-09-25T21:50:14.628Z,78.69
2017-09-25T21:55:19.273Z,78.65
2017-09-25T22:00:24.487Z,78.70
2017-09-25T22:05:28.834Z,78.37
2017-09-25T22:10:33.230Z,78.21
2017-09-25T22:15:37.698Z,78.57
2017-09-25T22:20:39.775Z,78.21
2017-09-25T22:25:41.748Z,77.97
2017-09-25T22:30:44.467Z,78.47
2017-09-25T22:35:46.764Z,78.55
2017-09-25T22:40:59.247Z,78.65
2017-09-25T22:46:02.016Z,79.17
2017-09-25T22:51:05.458Z,78.68
2017-09-25T22:56:07.872Z,78.71
2017-09-25T23:01:10.304Z,78.95
2017-09-25T23:06:12.796Z,78.90
2017-09-25T23:11:16.507Z,78.57
2017-09-25T23:16:19.121Z,78.78
2017-09-25T23:21:21.050Z,78.96
2017-09-25T23:26:23.275Z,78.49
2017-09-25T23:31:26.892Z,78.42
2017-09-25T23:36:29.004Z,78.71
2017-09-25T23:41:31.724Z,78.60
2017-09-25T23:46:35.095Z,78.60
2017-09-25T23:51:37.646Z,78.17
2017-09-25T23:56:39.606Z,78.20
